sensor_id;sensor_type;location;lat;lon;timestamp;temperature;humidity
61351;DHT22;47119;49.130;9.218;2023-10-09T07:46:05;17.05;74.29
61351;DHT22;47119;49.130;9.218;2023-10-09T07:48:50;17.02;74.29
61351;DHT22;47119;49.130;9.218;2023-10-09T07:51:22;17.05;74.34
61351;DHT22;47119;49.130;9.218;2023-10-09T07:53:59;17.04;74.20
61351;DHT22;47119;49.130;9.218;2023-10-09T07:56:38;17.08;74.23
61351;DHT22;47119;49.130;9.218;2023-10-09T07:59:10;17.14;74.23
61351;DHT22;47119;49.130;9.218;2023-10-09T08:01:41;17.11;74.27
61351;DHT22;47119;49.130;9.218;2023-10-09T08:04:18;17.14;74.20
61351;DHT22;47119;49.130;9.218;2023-10-09T08:07:02;17.12;74.47
61351;DHT22;47119;49.130;9.218;2023-10-09T08:09:32;17.14;74.44
61351;DHT22;47119;49.130;9.218;2023-10-09T08:12:12;17.07;74.66
61351;DHT22;47119;49.130;9.218;2023-10-09T08:15:00;17.08;74.50
61351;DHT22;47119;49.130;9.218;2023-10-09T08:17:44;17.11;74.55
61351;DHT22;47119;49.130;9.218;2023-10-09T08:20:17;17.16;74.20
61351;DHT22;47119;49.130;9.218;2023-10-09T08:22:43;17.15;74.47
61351;DHT22;47119;49.130;9.218;2023-10-09T08:25:19;17.19;74.25
61351;DHT22;47119;49.130;9.218;2023-10-09T11:52:05;17.87;73.48
61351;DHT22;47119;49.130;9.218;2023-10-09T11:54:52;17.86;73.37
61351;DHT22;47119;49.130;9.218;2023-10-09T11:57:23;17.84;73.38
61351;DHT22;47119;49.130;9.218;2023-10-09T11:59:58;17.87;73.35
61351;DHT22;47119;49.130;9.218;2023-10-09T12:02:31;17.86;73.19
61351;DHT22;47119;49.130;9.218;2023-10-09T12:04:58;17.86;73.19
61351;DHT22;47119;49.130;9.218;2023-10-09T12:07:26;17.84;73.30
61351;DHT22;47119;49.130;9.218;2023-10-09T12:09:53;17.81;73.32
61351;DHT22;47119;49.130;9.218;2023-10-09T12:12:22;17.83;73.36
61351;DHT22;47119;49.130;9.218;2023-10-09T12:14:53;17.83;73.34
61351;DHT22;47119;49.130;9.218;2023-10-09T12:37:36;17.96;73.05
61351;DHT22;47119;49.130;9.218;2023-10-09T12:40:06;17.98;73.14
61351;DHT22;47119;49.130;9.218;2023-10-09T12:42:36;17.97;72.86
61351;DHT22;47119;49.130;9.218;2023-10-09T12:45:03;17.97;72.97
61351;DHT22;47119;49.130;9.218;2023-10-09T12:47:34;17.97;72.90
61351;DHT22;47119;49.130;9.218;2023-10-09T12:50:06;17.97;72.92
61351;DHT22;47119;49.130;9.218;2023-10-09T12:52:45;17.98;72.74
61351;DHT22;47119;49.130;9.218;2023-10-09T12:55:16;17.98;72.76
61351;DHT22;47119;49.130;9.218;2023-10-09T12:57:45;17.97;72.97
61351;DHT22;47119;49.130;9.218;2023-10-09T13:00:13;17.98;73.06
61351;DHT22;47119;49.130;9.218;2023-10-09T13:02:53;18.02;73.02
61351;DHT22;47119;49.130;9.218;2023-10-09T13:05:22;18.00;72.92
61351;DHT22;47119;49.130;9.218;2023-10-09T13:07:54;18.04;72.74
61351;DHT22;47119;49.130;9.218;2023-10-09T13:10:24;18.02;72.76
61351;DHT22;47119;49.130;9.218;2023-10-09T13:12:56;18.02;72.82
61351;DHT22;47119;49.130;9.218;2023-10-09T13:15:28;18.04;72.78
61351;DHT22;47119;49.130;9.218;2023-10-09T13:18:08;18.05;72.65
61351;DHT22;47119;49.130;9.218;2023-10-09T13:20:39;18.05;72.60
61351;DHT22;47119;49.130;9.218;2023-10-09T13:23:42;18.05;72.42
61351;DHT22;47119;49.130;9.218;2023-10-09T13:35:41;18.08;71.87
61351;DHT22;47119;49.130;9.218;2023-10-09T13:38:19;18.17;71.38
61351;DHT22;47119;49.130;9.218;2023-10-09T13:40:47;18.17;70.71
61351;DHT22;47119;49.130;9.218;2023-10-09T13:43:15;18.12;70.62
61351;DHT22;47119;49.130;9.218;2023-10-09T13:45:43;18.12;70.70
61351;DHT22;47119;49.130;9.218;2023-10-09T13:48:15;18.18;70.13
61351;DHT22;47119;49.130;9.218;2023-10-09T13:50:50;18.14;70.77
61351;DHT22;47119;49.130;9.218;2023-10-09T13:53:31;18.15;70.44
61351;DHT22;47119;49.130;9.218;2023-10-09T13:56:02;18.12;70.13
61351;DHT22;47119;49.130;9.218;2023-10-09T13:58:40;18.15;70.26
61351;DHT22;47119;49.130;9.218;2023-10-09T14:01:11;18.10;70.75
61351;DHT22;47119;49.130;9.218;2023-10-09T14:03:48;18.11;70.51
61351;DHT22;47119;49.130;9.218;2023-10-09T14:06:20;18.11;71.29
61351;DHT22;47119;49.130;9.218;2023-10-09T14:09:02;18.08;70.60
61351;DHT22;47119;49.130;9.218;2023-10-09T14:11:31;18.18;70.59
61351;DHT22;47119;49.130;9.218;2023-10-09T14:14:03;18.21;70.13
61351;DHT22;47119;49.130;9.218;2023-10-09T14:16:35;18.15;69.92
61351;DHT22;47119;49.130;9.218;2023-10-09T14:19:02;18.14;69.50
61351;DHT22;47119;49.130;9.218;2023-10-09T14:21:33;18.14;69.58
61351;DHT22;47119;49.130;9.218;2023-10-09T14:24:03;18.14;69.22
61351;DHT22;47119;49.130;9.218;2023-10-09T14:26:44;18.12;69.59
61351;DHT22;47119;49.130;9.218;2023-10-09T14:29:12;18.14;69.47
61351;DHT22;47119;49.130;9.218;2023-10-09T14:31:42;18.18;69.01
61351;DHT22;47119;49.130;9.218;2023-10-09T14:34:24;18.14;68.78
61351;DHT22;47119;49.130;9.218;2023-10-09T14:37:00;18.11;68.91
61351;DHT22;47119;49.130;9.218;2023-10-09T14:40:09;18.11;68.89
61351;DHT22;47119;49.130;9.218;2023-10-09T14:42:42;18.10;68.87
61351;DHT22;47119;49.130;9.218;2023-10-09T14:45:15;18.10;68.69
61351;DHT22;47119;49.130;9.218;2023-10-09T14:47:44;18.07;68.68
61351;DHT22;47119;49.130;9.218;2023-10-09T14:50:14;18.12;68.56
61351;DHT22;47119;49.130;9.218;2023-10-09T14:53:02;18.12;68.74
61351;DHT22;47119;49.130;9.218;2023-10-09T14:55:30;18.12;68.60
61351;DHT22;47119;49.130;9.218;2023-10-09T14:57:58;18.11;68.75
61351;DHT22;47119;49.130;9.218;2023-10-09T15:00:30;18.12;68.43
61351;DHT22;47119;49.130;9.218;2023-10-09T15:10:54;18.12;68.58
61351;DHT22;47119;49.130;9.218;2023-10-09T15:13:31;18.11;68.46
61351;DHT22;47119;49.130;9.218;2023-10-09T15:16:06;18.10;68.19
61351;DHT22;47119;49.130;9.218;2023-10-09T15:18:35;18.11;68.46
61351;DHT22;47119;49.130;9.218;2023-10-09T15:21:03;18.11;68.72
61351;DHT22;47119;49.130;9.218;2023-10-09T15:23:34;18.12;68.45
61351;DHT22;47119;49.130;9.218;2023-10-09T15:26:04;18.15;68.34
61351;DHT22;47119;49.130;9.218;2023-10-09T15:28:34;18.14;68.40
61351;DHT22;47119;49.130;9.218;2023-10-09T15:31:01;18.11;68.26
61351;DHT22;47119;49.130;9.218;2023-10-09T15:33:31;18.11;68.44
61351;DHT22;47119;49.130;9.218;2023-10-09T15:36:08;18.10;68.76
61351;DHT22;47119;49.130;9.218;2023-10-09T15:39:04;18.07;68.74
61351;DHT22;47119;49.130;9.218;2023-10-09T15:41:33;18.07;69.35
61351;DHT22;47119;49.130;9.218;2023-10-09T15:44:03;18.04;69.67
61351;DHT22;47119;49.130;9.218;2023-10-09T15:46:32;18.04;68.82
61351;DHT22;47119;49.130;9.218;2023-10-09T15:49:00;18.05;68.94
61351;DHT22;47119;49.130;9.218;2023-10-09T15:51:29;18.02;69.04
61351;DHT22;47119;49.130;9.218;2023-10-09T15:54:00;18.07;69.11
61351;DHT22;47119;49.130;9.218;2023-10-09T15:56:32;18.05;69.16
61351;DHT22;47119;49.130;9.218;2023-10-09T15:59:01;18.04;69.25
61351;DHT22;47119;49.130;9.218;2023-10-09T16:01:38;18.05;69.68
61351;DHT22;47119;49.130;9.218;2023-10-09T16:04:09;18.07;69.38
61351;DHT22;47119;49.130;9.218;2023-10-09T16:06:40;18.05;70.19
61351;DHT22;47119;49.130;9.218;2023-10-09T16:09:07;18.02;69.41
61351;DHT22;47119;49.130;9.218;2023-10-09T16:11:39;18.07;70.08
61351;DHT22;47119;49.130;9.218;2023-10-09T16:14:10;18.04;69.80
61351;DHT22;47119;49.130;9.218;2023-10-09T16:16:55;18.07;69.87
61351;DHT22;47119;49.130;9.218;2023-10-09T16:19:22;18.05;69.98
61351;DHT22;47119;49.130;9.218;2023-10-09T16:21:49;18.02;70.04
61351;DHT22;47119;49.130;9.218;2023-10-09T16:24:17;18.02;70.33
61351;DHT22;47119;49.130;9.218;2023-10-09T16:26:50;18.05;70.65
61351;DHT22;47119;49.130;9.218;2023-10-09T16:29:22;18.05;70.35
61351;DHT22;47119;49.130;9.218;2023-10-09T16:31:52;18.07;70.43
61351;DHT22;47119;49.130;9.218;2023-10-09T16:34:31;18.02;70.75
61351;DHT22;47119;49.130;9.218;2023-10-09T16:37:04;18.00;70.68
61351;DHT22;47119;49.130;9.218;2023-10-09T16:39:32;18.01;70.55
61351;DHT22;47119;49.130;9.218;2023-10-09T16:42:08;18.05;70.82
61351;DHT22;47119;49.130;9.218;2023-10-09T16:44:37;18.02;70.95
61351;DHT22;47119;49.130;9.218;2023-10-09T16:47:04;18.04;70.74
61351;DHT22;47119;49.130;9.218;2023-10-09T16:49:34;18.01;70.68
61351;DHT22;47119;49.130;9.218;2023-10-09T16:52:01;18.04;71.11
61351;DHT22;47119;49.130;9.218;2023-10-09T16:54:32;18.01;71.13
61351;DHT22;47119;49.130;9.218;2023-10-09T16:57:04;18.02;71.54
61351;DHT22;47119;49.130;9.218;2023-10-09T16:59:34;18.01;71.30
61351;DHT22;47119;49.130;9.218;2023-10-09T17:02:06;18.01;71.28
61351;DHT22;47119;49.130;9.218;2023-10-09T17:04:41;18.02;71.31
61351;DHT22;47119;49.130;9.218;2023-10-09T17:07:10;18.02;71.46
61351;DHT22;47119;49.130;9.218;2023-10-09T17:09:43;17.98;71.22
61351;DHT22;47119;49.130;9.218;2023-10-09T17:12:15;18.01;71.64
61351;DHT22;47119;49.130;9.218;2023-10-09T17:14:45;17.97;71.88
61351;DHT22;47119;49.130;9.218;2023-10-09T17:17:13;18.00;71.58
61351;DHT22;47119;49.130;9.218;2023-10-09T17:19:43;18.00;72.05
61351;DHT22;47119;49.130;9.218;2023-10-09T17:22:16;18.01;71.51
61351;DHT22;47119;49.130;9.218;2023-10-09T17:24:43;18.01;71.53
61351;DHT22;47119;49.130;9.218;2023-10-09T17:27:11;18.01;71.80
61351;DHT22;47119;49.130;9.218;2023-10-09T17:29:43;18.00;71.89
61351;DHT22;47119;49.130;9.218;2023-10-09T17:32:11;17.97;71.71
61351;DHT22;47119;49.130;9.218;2023-10-09T17:34:44;17.98;71.52
61351;DHT22;47119;49.130;9.218;2023-10-09T17:37:14;18.00;71.57
61351;DHT22;47119;49.130;9.218;2023-10-09T17:39:41;17.98;72.17
61351;DHT22;47119;49.130;9.218;2023-10-09T17:42:08;18.01;71.67
61351;DHT22;47119;49.130;9.218;2023-10-09T17:44:39;17.96;72.19
61351;DHT22;47119;49.130;9.218;2023-10-09T17:47:06;17.97;72.18
61351;DHT22;47119;49.130;9.218;2023-10-09T17:49:35;17.98;71.64
61351;DHT22;47119;49.130;9.218;2023-10-09T17:52:06;17.97;72.09
61351;DHT22;47119;49.130;9.218;2023-10-09T17:54:37;17.98;71.71
61351;DHT22;47119;49.130;9.218;2023-10-09T17:57:04;17.98;71.60
61351;DHT22;47119;49.130;9.218;2023-10-09T17:59:31;17.98;71.52
61351;DHT22;47119;49.130;9.218;2023-10-09T18:02:03;17.97;72.22
61351;DHT22;47119;49.130;9.218;2023-10-09T18:04:30;17.96;71.90
61351;DHT22;47119;49.130;9.218;2023-10-09T18:07:03;17.96;71.86
61351;DHT22;47119;49.130;9.218;2023-10-09T18:09:34;17.97;72.02
61351;DHT22;47119;49.130;9.218;2023-10-09T18:12:01;17.96;71.41
61351;DHT22;47119;49.130;9.218;2023-10-09T18:14:28;17.97;72.02
61351;DHT22;47119;49.130;9.218;2023-10-09T18:16:57;17.97;72.10
61351;DHT22;47119;49.130;9.218;2023-10-09T18:19:29;17.97;72.46
61351;DHT22;47119;49.130;9.218;2023-10-09T18:21:58;17.98;71.90
61351;DHT22;47119;49.130;9.218;2023-10-09T18:24:25;17.97;71.32
61351;DHT22;47119;49.130;9.218;2023-10-09T18:26:56;18.00;71.95
61351;DHT22;47119;49.130;9.218;2023-10-09T18:29:28;17.98;71.57
61351;DHT22;47119;49.130;9.218;2023-10-09T18:31:58;17.94;71.61
61351;DHT22;47119;49.130;9.218;2023-10-09T18:34:30;17.96;72.20
61351;DHT22;47119;49.130;9.218;2023-10-09T18:37:02;17.93;72.32
61351;DHT22;47119;49.130;9.218;2023-10-09T18:39:34;17.96;71.65
61351;DHT22;47119;49.130;9.218;2023-10-09T18:42:06;17.97;72.35
61351;DHT22;47119;49.130;9.218;2023-10-09T18:44:33;17.96;71.48
61351;DHT22;47119;49.130;9.218;2023-10-09T18:47:03;17.97;72.05
61351;DHT22;47119;49.130;9.218;2023-10-09T18:49:33;17.96;71.61
61351;DHT22;47119;49.130;9.218;2023-10-09T18:52:05;17.93;71.72
61351;DHT22;47119;49.130;9.218;2023-10-09T18:54:32;17.96;71.99
61351;DHT22;47119;49.130;9.218;2023-10-09T18:57:01;17.96;72.06
61351;DHT22;47119;49.130;9.218;2023-10-09T18:59:30;17.97;71.79
61351;DHT22;47119;49.130;9.218;2023-10-09T19:02:19;18.00;71.87
61351;DHT22;47119;49.130;9.218;2023-10-09T19:09:53;17.98;71.50
61351;DHT22;47119;49.130;9.218;2023-10-09T19:13:05;17.97;71.49
61351;DHT22;47119;49.130;9.218;2023-10-09T19:15:37;17.97;71.80
61351;DHT22;47119;49.130;9.218;2023-10-09T19:18:07;17.97;72.21
61351;DHT22;47119;49.130;9.218;2023-10-09T19:20:41;17.98;72.13
61351;DHT22;47119;49.130;9.218;2023-10-09T19:23:08;17.98;72.31
61351;DHT22;47119;49.130;9.218;2023-10-09T19:25:37;17.97;72.03
61351;DHT22;47119;49.130;9.218;2023-10-09T19:28:06;17.96;72.54
61351;DHT22;47119;49.130;9.218;2023-10-09T19:30:35;17.97;72.24
61351;DHT22;47119;49.130;9.218;2023-10-09T19:33:07;17.93;72.23
61351;DHT22;47119;49.130;9.218;2023-10-09T19:35:36;17.96;72.37
61351;DHT22;47119;49.130;9.218;2023-10-09T19:38:05;17.96;72.67
61351;DHT22;47119;49.130;9.218;2023-10-09T19:40:35;17.97;72.39
61351;DHT22;47119;49.130;9.218;2023-10-09T19:43:02;17.94;72.70
61351;DHT22;47119;49.130;9.218;2023-10-09T19:45:30;17.96;72.22
61351;DHT22;47119;49.130;9.218;2023-10-09T19:47:58;18.00;72.63
61351;DHT22;47119;49.130;9.218;2023-10-09T19:50:27;17.96;71.99
61351;DHT22;47119;49.130;9.218;2023-10-09T19:52:56;17.97;72.45
61351;DHT22;47119;49.130;9.218;2023-10-09T19:55:26;17.96;71.84
61351;DHT22;47119;49.130;9.218;2023-10-09T19:57:57;17.97;72.03
61351;DHT22;47119;49.130;9.218;2023-10-09T20:00:28;17.97;72.35
61351;DHT22;47119;49.130;9.218;2023-10-09T20:03:00;17.94;72.60
61351;DHT22;47119;49.130;9.218;2023-10-09T20:05:40;17.97;72.56
61351;DHT22;47119;49.130;9.218;2023-10-09T20:08:07;17.96;72.70
61351;DHT22;47119;49.130;9.218;2023-10-09T20:10:34;17.94;72.65
61351;DHT22;47119;49.130;9.218;2023-10-09T20:13:06;17.93;72.83
61351;DHT22;47119;49.130;9.218;2023-10-09T20:15:35;17.94;72.24
61351;DHT22;47119;49.130;9.218;2023-10-09T20:18:11;17.96;72.41
61351;DHT22;47119;49.130;9.218;2023-10-09T20:20:38;17.94;72.14
61351;DHT22;47119;49.130;9.218;2023-10-09T20:23:10;17.93;72.93
61351;DHT22;47119;49.130;9.218;2023-10-09T20:25:44;17.93;72.82
61351;DHT22;47119;49.130;9.218;2023-10-09T20:28:12;17.96;72.87
61351;DHT22;47119;49.130;9.218;2023-10-09T20:30:40;17.94;73.07
61351;DHT22;47119;49.130;9.218;2023-10-09T20:33:07;17.96;73.04
61351;DHT22;47119;49.130;9.218;2023-10-09T20:37:05;17.94;73.04
61351;DHT22;47119;49.130;9.218;2023-10-09T20:39:32;17.93;73.06
61351;DHT22;47119;49.130;9.218;2023-10-09T20:42:01;17.96;73.20
61351;DHT22;47119;49.130;9.218;2023-10-09T20:44:59;17.93;73.22
61351;DHT22;47119;49.130;9.218;2023-10-09T20:47:28;17.93;73.47
61351;DHT22;47119;49.130;9.218;2023-10-09T20:49:57;17.93;73.39
61351;DHT22;47119;49.130;9.218;2023-10-09T20:52:29;17.94;73.35
61351;DHT22;47119;49.130;9.218;2023-10-09T21:16:04;17.87;73.80
61351;DHT22;47119;49.130;9.218;2023-10-09T21:18:34;17.84;73.35
61351;DHT22;47119;49.130;9.218;2023-10-09T21:21:01;17.84;73.46
61351;DHT22;47119;49.130;9.218;2023-10-09T21:23:32;17.83;73.42
61351;DHT22;47119;49.130;9.218;2023-10-09T21:25:59;17.80;73.77
61351;DHT22;47119;49.130;9.218;2023-10-09T21:28:26;17.83;73.60
61351;DHT22;47119;49.130;9.218;2023-10-09T21:31:21;17.81;73.36
61351;DHT22;47119;49.130;9.218;2023-10-09T21:33:51;17.79;73.69
61351;DHT22;47119;49.130;9.218;2023-10-09T21:36:22;17.77;73.62
61351;DHT22;47119;49.130;9.218;2023-10-09T21:38:50;17.76;73.68
61351;DHT22;47119;49.130;9.218;2023-10-09T21:41:18;17.77;73.46
61351;DHT22;47119;49.130;9.218;2023-10-09T21:43:49;17.74;73.43
61351;DHT22;47119;49.130;9.218;2023-10-09T21:46:19;17.77;73.35
61351;DHT22;47119;49.130;9.218;2023-10-09T21:48:56;17.74;73.55
61351;DHT22;47119;49.130;9.218;2023-10-09T21:51:25;17.71;73.73
61351;DHT22;47119;49.130;9.218;2023-10-09T21:53:53;17.73;73.51
61351;DHT22;47119;49.130;9.218;2023-10-09T21:56:21;17.71;73.51
61351;DHT22;47119;49.130;9.218;2023-10-09T21:58:48;17.70;73.63
61351;DHT22;47119;49.130;9.218;2023-10-09T22:01:18;17.73;73.44
61351;DHT22;47119;49.130;9.218;2023-10-09T22:03:49;17.71;73.30
61351;DHT22;47119;49.130;9.218;2023-10-09T22:06:20;17.71;73.31
61351;DHT22;47119;49.130;9.218;2023-10-09T22:08:48;17.71;73.01
61351;DHT22;47119;49.130;9.218;2023-10-09T22:11:16;17.70;73.08
61351;DHT22;47119;49.130;9.218;2023-10-09T22:13:44;17.73;73.13
61351;DHT22;47119;49.130;9.218;2023-10-09T22:16:11;17.73;72.97
61351;DHT22;47119;49.130;9.218;2023-10-09T22:18:39;17.71;73.25
61351;DHT22;47119;49.130;9.218;2023-10-09T22:21:06;17.69;73.38
61351;DHT22;47119;49.130;9.218;2023-10-09T22:23:39;17.69;73.01
61351;DHT22;47119;49.130;9.218;2023-10-09T22:27:10;17.70;72.98
61351;DHT22;47119;49.130;9.218;2023-10-09T22:29:51;17.66;72.99
61351;DHT22;47119;49.130;9.218;2023-10-09T22:38:35;17.65;72.94
61351;DHT22;47119;49.130;9.218;2023-10-09T22:44:31;17.65;72.87
61351;DHT22;47119;49.130;9.218;2023-10-09T22:47:04;17.65;73.01
61351;DHT22;47119;49.130;9.218;2023-10-09T22:49:58;17.60;73.12
61351;DHT22;47119;49.130;9.218;2023-10-09T22:56:12;17.63;72.91
61351;DHT22;47119;49.130;9.218;2023-10-09T22:59:02;17.59;73.08
61351;DHT22;47119;49.130;9.218;2023-10-09T23:01:52;17.60;72.90
61351;DHT22;47119;49.130;9.218;2023-10-09T23:04:25;17.62;72.98
61351;DHT22;47119;49.130;9.218;2023-10-09T23:07:04;17.57;72.92
61351;DHT22;47119;49.130;9.218;2023-10-09T23:09:43;17.59;72.81
61351;DHT22;47119;49.130;9.218;2023-10-09T23:12:20;17.62;72.80
61351;DHT22;47119;49.130;9.218;2023-10-09T23:14:54;17.60;72.93
61351;DHT22;47119;49.130;9.218;2023-10-09T23:17:23;17.56;72.87
61351;DHT22;47119;49.130;9.218;2023-10-09T23:20:06;17.56;72.86
61351;DHT22;47119;49.130;9.218;2023-10-09T23:22:52;17.57;72.93
61351;DHT22;47119;49.130;9.218;2023-10-09T23:25:24;17.54;72.95
61351;DHT22;47119;49.130;9.218;2023-10-09T23:28:01;17.53;72.78
61351;DHT22;47119;49.130;9.218;2023-10-09T23:30:47;17.59;72.81
61351;DHT22;47119;49.130;9.218;2023-10-09T23:33:19;17.56;72.77
61351;DHT22;47119;49.130;9.218;2023-10-09T23:35:47;17.57;72.82
61351;DHT22;47119;49.130;9.218;2023-10-09T23:38:17;17.53;72.86
61351;DHT22;47119;49.130;9.218;2023-10-09T23:40:50;17.53;72.85
61351;DHT22;47119;49.130;9.218;2023-10-09T23:43:19;17.54;72.81
61351;DHT22;47119;49.130;9.218;2023-10-09T23:45:48;17.57;72.75
61351;DHT22;47119;49.130;9.218;2023-10-09T23:48:23;17.53;72.81
61351;DHT22;47119;49.130;9.218;2023-10-09T23:50:57;17.53;72.89
61351;DHT22;47119;49.130;9.218;2023-10-09T23:53:38;17.51;72.67
61351;DHT22;47119;49.130;9.218;2023-10-09T23:56:12;17.50;72.79
61351;DHT22;47119;49.130;9.218;2023-10-09T23:59:06;17.50;72.75
